Time;durP1;ratioP1;P1;durP2;ratioP2;P2;SDS_P1;SDS_P2;PMS_P1;PMS_P2;Temp;Humidity;BMP_temperature;BMP_pressure;BME280_temperature;BME280_humidity;BME280_pressure;Samples;Min_cycle;Max_cycle;Signal;HPM_P1;HPM_P2
2023/01/06 00:01:31;;;;;;;5.07;3.37;;;11.10;99.90;;;;;;10464079;28;20262;-70
2023/01/06 00:06:32;;;;;;;8.13;3.93;;;11.10;99.90;;;;;;10472641;28;20286;-70
2023/01/06 00:11:33;;;;;;;8.23;3.80;;;11.10;99.90;;;;;;10497041;28;20225;-69
2023/01/06 00:16:35;;;;;;;11.53;3.97;;;11.10;99.90;;;;;;10462615;28;20237;-69
2023/01/06 00:21:36;;;;;;;6.87;3.97;;;11.00;99.90;;;;;;10458591;28;20214;-70
2023/01/06 00:26:37;;;;;;;6.83;4.00;;;11.00;99.90;;;;;;10461096;28;20615;-67
2023/01/06 00:31:38;;;;;;;8.10;4.17;;;11.00;99.90;;;;;;10468491;28;20226;-68
2023/01/06 00:36:38;;;;;;;6.40;3.70;;;11.10;99.90;;;;;;10472093;28;20207;-68
2023/01/06 00:46:59;;;;;;;6.87;4.13;;;11.00;99.90;;;;;;10477696;28;20592;-67
2023/01/06 00:52:03;;;;;;;9.63;5.50;;;11.00;99.90;;;;;;10472923;28;20222;-67
2023/01/06 00:57:06;;;;;;;9.53;5.70;;;11.00;99.90;;;;;;10481283;28;20280;-68
2023/01/06 01:02:06;;;;;;;11.27;6.20;;;11.00;99.90;;;;;;10474178;28;20326;-69
2023/01/06 01:07:07;;;;;;;8.83;6.33;;;11.00;99.90;;;;;;10474809;28;20651;-69
2023/01/06 01:12:10;;;;;;;8.33;6.23;;;11.00;99.90;;;;;;10476920;28;20769;-69
2023/01/06 01:17:13;;;;;;;10.10;7.17;;;11.00;99.90;;;;;;10490530;28;20309;-69
2023/01/06 01:22:14;;;;;;;12.47;7.40;;;11.00;99.90;;;;;;10502123;28;20656;-69
2023/01/06 01:27:15;;;;;;;12.07;8.67;;;10.90;99.90;;;;;;10471519;28;20219;-67
2023/01/06 01:32:16;;;;;;;14.57;11.07;;;10.90;99.90;;;;;;10479007;28;20220;-69
2023/01/06 01:37:16;;;;;;;14.30;11.97;;;10.90;99.90;;;;;;10471674;28;20224;-68
2023/01/06 01:42:19;;;;;;;16.43;14.23;;;10.90;99.90;;;;;;10469610;28;20322;-68
2023/01/06 01:47:31;;;;;;;21.00;14.77;;;10.80;99.90;;;;;;10476668;28;20766;-69
2023/01/06 01:52:33;;;;;;;19.00;16.07;;;10.80;99.90;;;;;;10484280;28;20211;-68
2023/01/06 01:58:02;;;;;;;19.30;15.43;;;10.80;99.90;;;;;;10465683;28;20229;-70
2023/01/06 02:03:04;;;;;;;16.90;14.87;;;10.80;99.90;;;;;;10455103;28;20226;-72
2023/01/06 02:08:28;;;;;;;19.40;14.93;;;10.80;99.90;;;;;;10491120;28;20398;-71
2023/01/06 02:13:34;;;;;;;15.90;14.20;;;10.80;99.90;;;;;;10469531;28;20233;-72
2023/01/06 02:18:52;;;;;;;18.73;14.00;;;10.80;99.90;;;;;;10483055;28;20219;-72
2023/01/06 02:24:23;;;;;;;18.80;13.47;;;10.80;99.90;;;;;;10466723;28;20227;-72
2023/01/06 02:29:48;;;;;;;14.57;11.40;;;10.80;99.90;;;;;;10477470;28;20220;-71
2023/01/06 02:35:02;;;;;;;12.83;11.37;;;10.80;99.90;;;;;;10479663;28;20233;-73
2023/01/06 02:40:14;;;;;;;13.07;11.03;;;10.80;99.90;;;;;;10475694;28;20336;-73
2023/01/06 02:45:15;;;;;;;14.17;11.90;;;10.80;99.90;;;;;;10479566;28;20534;-73
2023/01/06 02:50:36;;;;;;;12.37;10.83;;;10.80;99.90;;;;;;10470451;28;20274;-73
2023/01/06 02:55:48;;;;;;;14.07;9.27;;;10.80;99.90;;;;;;10488270;28;20229;-73
2023/01/06 03:01:07;;;;;;;10.43;8.87;;;10.80;99.90;;;;;;10494806;28;20221;-74
2023/01/06 03:06:13;;;;;;;9.77;8.80;;;10.80;99.90;;;;;;10478454;28;20230;-72
2023/01/06 03:11:14;;;;;;;9.77;8.73;;;10.90;99.90;;;;;;10472873;28;20223;-75
2023/01/06 03:16:18;;;;;;;10.50;9.40;;;10.90;99.90;;;;;;10460273;28;20231;-72
2023/01/06 03:21:24;;;;;;;11.30;9.50;;;10.90;99.90;;;;;;10470930;28;20223;-72
2023/01/06 03:26:25;;;;;;;10.70;9.50;;;10.80;99.90;;;;;;10474735;28;20565;-72
2023/01/06 03:31:49;;;;;;;8.90;8.00;;;10.80;99.90;;;;;;10471725;28;20275;-72
2023/01/06 03:37:02;;;;;;;12.07;9.53;;;10.80;99.90;;;;;;10469805;28;20219;-72
2023/01/06 03:48:00;;;;;;;10.00;9.00;;;10.80;99.90;;;;;;10469393;28;20239;-73
2023/01/06 03:53:13;;;;;;;10.73;7.90;;;10.80;99.90;;;;;;10492599;28;20345;-72
2023/01/06 03:58:19;;;;;;;9.90;7.13;;;10.80;99.90;;;;;;10486382;28;20916;-71
2023/01/06 04:03:23;;;;;;;7.20;6.40;;;10.90;99.90;;;;;;10478639;28;20781;-74
2023/01/06 04:08:25;;;;;;;8.57;7.43;;;10.90;99.90;;;;;;10474335;28;20222;-70
2023/01/06 04:13:29;;;;;;;8.77;6.13;;;10.80;99.90;;;;;;10476635;28;20229;-73
2023/01/06 04:18:29;;;;;;;7.23;5.57;;;10.80;99.90;;;;;;10473713;28;20629;-73
2023/01/06 04:23:31;;;;;;;6.50;5.87;;;10.90;99.90;;;;;;10465629;28;20237;-72
2023/01/06 04:28:32;;;;;;;6.27;5.50;;;10.90;99.90;;;;;;10473178;28;20218;-76
2023/01/06 04:33:36;;;;;;;5.60;4.57;;;10.90;99.90;;;;;;10470915;28;20238;-76
2023/01/06 04:38:36;;;;;;;7.07;4.37;;;10.90;99.90;;;;;;10485673;28;20255;-73
2023/01/06 04:43:37;;;;;;;4.23;3.30;;;10.90;99.90;;;;;;10469180;28;20225;-76
2023/01/06 04:48:38;;;;;;;2.73;2.53;;;10.90;99.90;;;;;;10475504;28;20306;-75
2023/01/06 04:53:40;;;;;;;3.30;2.70;;;10.90;99.90;;;;;;10468360;28;20721;-74
2023/01/06 04:58:40;;;;;;;3.70;2.60;;;10.90;99.90;;;;;;10486323;28;20317;-74
2023/01/06 05:03:41;;;;;;;3.00;2.70;;;10.90;99.90;;;;;;10474088;28;20219;-74
2023/01/06 05:08:42;;;;;;;3.50;3.20;;;11.00;99.90;;;;;;10476490;28;20305;-74
2023/01/06 05:13:43;;;;;;;3.93;3.57;;;11.00;99.90;;;;;;10444242;28;20289;-74
2023/01/06 05:18:44;;;;;;;3.60;3.30;;;11.00;99.90;;;;;;10475722;28;20305;-74
2023/01/06 05:23:46;;;;;;;4.00;2.97;;;11.00;99.90;;;;;;10457553;28;20231;-74
2023/01/06 05:28:46;;;;;;;3.47;3.00;;;10.90;99.90;;;;;;10477187;28;20246;-75
2023/01/06 05:33:47;;;;;;;2.93;2.73;;;10.90;99.90;;;;;;10496435;28;20229;-74
2023/01/06 05:38:52;;;;;;;4.17;2.70;;;10.90;99.90;;;;;;10488002;28;20226;-73
2023/01/06 05:43:56;;;;;;;3.03;2.77;;;10.90;99.90;;;;;;10478370;28;20218;-74
2023/01/06 05:48:59;;;;;;;3.37;2.57;;;10.80;99.90;;;;;;10481757;28;20215;-71
2023/01/06 05:54:00;;;;;;;5.57;3.20;;;10.70;99.90;;;;;;10484115;28;20311;-75
2023/01/06 05:59:00;;;;;;;2.83;2.63;;;10.70;99.90;;;;;;10459887;28;20310;-76
2023/01/06 06:04:01;;;;;;;2.67;2.37;;;10.60;99.90;;;;;;10475188;28;20770;-78
2023/01/06 06:09:04;;;;;;;3.30;1.97;;;10.50;99.90;;;;;;10455851;28;20306;-72
2023/01/06 06:14:08;;;;;;;2.90;1.83;;;10.50;99.90;;;;;;10483766;28;20242;-71
2023/01/06 06:19:11;;;;;;;3.47;1.90;;;10.50;99.90;;;;;;10447586;28;20223;-71
2023/01/06 06:24:12;;;;;;;3.97;1.47;;;10.40;99.90;;;;;;10442467;28;20227;-74
2023/01/06 06:29:12;;;;;;;2.57;1.33;;;10.40;99.90;;;;;;10474242;28;20634;-72
2023/01/06 06:34:13;;;;;;;1.93;1.43;;;10.30;99.90;;;;;;10477516;28;20219;-74
2023/01/06 06:39:13;;;;;;;2.63;1.60;;;10.30;99.90;;;;;;10466326;28;20307;-74
2023/01/06 06:44:14;;;;;;;3.33;1.37;;;10.30;99.90;;;;;;10480172;28;20219;-74
2023/01/06 06:49:15;;;;;;;2.93;1.40;;;10.30;99.90;;;;;;10482133;28;20325;-74
2023/01/06 06:54:15;;;;;;;1.47;1.30;;;10.30;99.90;;;;;;10479434;28;20237;-76
2023/01/06 06:59:22;;;;;;;1.10;1.00;;;10.30;99.90;;;;;;10463367;28;20587;-76
2023/01/06 07:04:22;;;;;;;1.40;1.30;;;10.40;99.90;;;;;;10465604;28;20222;-73
2023/01/06 07:09:24;;;;;;;1.47;0.90;;;10.40;99.90;;;;;;10474466;28;20713;-75
2023/01/06 07:14:25;;;;;;;1.80;1.03;;;10.40;99.90;;;;;;10496228;28;20242;-74
2023/01/06 07:19:27;;;;;;;2.50;1.10;;;10.40;99.90;;;;;;10473879;28;20238;-75
2023/01/06 07:24:27;;;;;;;2.00;0.80;;;10.40;99.90;;;;;;10453554;28;20229;-75
2023/01/06 07:29:28;;;;;;;1.63;0.90;;;10.50;99.90;;;;;;10482434;28;20229;-75
2023/01/06 07:34:29;;;;;;;1.20;0.70;;;10.50;99.90;;;;;;10481921;28;20233;-74
2023/01/06 07:39:29;;;;;;;1.50;0.80;;;10.50;99.90;;;;;;10473418;28;20693;-74
2023/01/06 07:44:30;;;;;;;2.23;0.90;;;10.50;99.90;;;;;;10485400;28;20223;-74
2023/01/06 07:49:31;;;;;;;1.50;0.80;;;10.50;99.90;;;;;;10482097;28;20306;-74
2023/01/06 07:54:32;;;;;;;1.00;0.80;;;10.60;99.90;;;;;;10465288;28;20230;-74
2023/01/06 07:59:32;;;;;;;1.20;0.50;;;10.70;99.90;;;;;;10455083;28;20227;-73
2023/01/06 08:04:36;;;;;;;0.90;0.60;;;10.70;99.90;;;;;;10507979;28;20292;-73
2023/01/06 08:09:36;;;;;;;2.70;0.90;;;10.70;99.90;;;;;;10475562;28;20260;-74
2023/01/06 08:14:37;;;;;;;2.63;0.90;;;10.70;99.90;;;;;;10478186;28;20649;-76
2023/01/06 08:19:40;;;;;;;1.97;0.70;;;10.70;99.90;;;;;;10475804;28;20261;-76
2023/01/06 08:24:40;;;;;;;1.73;0.70;;;10.70;99.90;;;;;;10460783;28;20235;-77
2023/01/06 08:29:42;;;;;;;1.07;0.70;;;10.70;99.90;;;;;;10462442;28;20317;-77
2023/01/06 08:34:42;;;;;;;3.07;0.80;;;10.70;99.90;;;;;;10478066;28;20237;-73
2023/01/06 08:39:44;;;;;;;2.33;0.77;;;10.80;99.90;;;;;;10482233;28;20217;-73
2023/01/06 08:44:46;;;;;;;1.87;0.90;;;10.80;99.90;;;;;;10470870;28;20228;-74
2023/01/06 08:49:47;;;;;;;0.80;0.80;;;10.80;99.90;;;;;;10475289;28;20203;-73
2023/01/06 08:54:47;;;;;;;2.93;1.20;;;10.90;99.90;;;;;;10513692;28;20242;-73
2023/01/06 08:59:52;;;;;;;1.67;1.07;;;10.90;99.90;;;;;;10499127;28;20313;-75
2023/01/06 09:04:52;;;;;;;3.80;1.00;;;10.90;99.90;;;;;;10475241;28;20226;-74
2023/01/06 09:09:53;;;;;;;2.80;1.20;;;10.90;99.90;;;;;;10467804;28;20223;-75
2023/01/06 09:14:54;;;;;;;1.40;1.07;;;11.00;99.90;;;;;;10476424;28;20227;-77
2023/01/06 09:19:54;;;;;;;1.10;0.90;;;11.00;99.90;;;;;;10468939;28;20227;-72
2023/01/06 09:24:55;;;;;;;2.00;0.90;;;11.00;99.90;;;;;;10475038;28;20592;-72
2023/01/06 09:29:55;;;;;;;1.13;0.93;;;11.00;99.90;;;;;;10474625;28;20213;-73
2023/01/06 09:34:56;;;;;;;1.07;0.60;;;11.10;99.90;;;;;;10482134;28;20223;-74
2023/01/06 09:39:57;;;;;;;2.00;0.70;;;11.10;99.90;;;;;;10472846;28;20702;-73
2023/01/06 09:45:04;;;;;;;2.73;0.83;;;11.10;99.90;;;;;;10466473;28;20231;-74
2023/01/06 09:50:19;;;;;;;1.77;0.67;;;11.20;99.90;;;;;;10463318;28;20229;-73
2023/01/06 09:55:29;;;;;;;0.63;0.60;;;11.20;99.90;;;;;;10469029;28;20309;-71
2023/01/06 10:00:38;;;;;;;2.17;1.10;;;11.20;99.90;;;;;;10474456;28;20226;-75
2023/01/06 10:05:59;;;;;;;2.30;0.57;;;11.10;99.90;;;;;;10467578;28;20247;-74
2023/01/06 10:11:14;;;;;;;1.10;0.73;;;11.10;99.90;;;;;;10455349;28;20310;-74
2023/01/06 10:16:42;;;;;;;2.00;0.80;;;11.10;99.90;;;;;;10468712;28;20730;-71
2023/01/06 10:22:08;;;;;;;0.83;0.50;;;11.20;99.90;;;;;;10467004;28;20230;-71
2023/01/06 10:27:49;;;;;;;2.23;0.87;;;11.30;99.90;;;;;;10474316;28;20308;-71
2023/01/06 10:32:50;;;;;;;0.67;0.60;;;11.30;99.90;;;;;;10389807;28;21117;-71
2023/01/06 10:37:53;;;;;;;2.00;0.80;;;11.40;99.90;;;;;;10445947;28;20316;-72
2023/01/06 10:43:09;;;;;;;1.80;0.73;;;11.40;99.90;;;;;;10475236;28;20315;-73
2023/01/06 10:48:16;;;;;;;1.07;0.97;;;11.50;99.90;;;;;;10462396;28;20221;-73
2023/01/06 10:53:17;;;;;;;1.97;1.07;;;11.50;99.90;;;;;;10467175;28;20304;-71
2023/01/06 10:58:41;;;;;;;3.03;0.50;;;11.50;99.90;;;;;;10479552;28;20245;-76
2023/01/06 11:03:44;;;;;;;1.67;0.77;;;11.60;99.90;;;;;;10474556;28;20231;-75
2023/01/06 11:08:45;;;;;;;1.63;0.80;;;11.70;99.90;;;;;;10479308;28;20227;-72
2023/01/06 11:13:54;;;;;;;3.67;1.07;;;11.90;99.90;;;;;;10473410;28;20228;-72
2023/01/06 11:19:01;;;;;;;1.10;1.00;;;12.00;99.90;;;;;;10471540;28;20226;-74
2023/01/06 11:24:16;;;;;;;2.10;1.20;;;12.10;99.90;;;;;;10477327;28;20376;-72
2023/01/06 11:29:32;;;;;;;2.70;1.10;;;12.10;99.90;;;;;;10457600;28;20861;-72
2023/01/06 11:34:33;;;;;;;2.13;1.10;;;12.10;99.90;;;;;;10465504;28;20599;-71
2023/01/06 11:39:35;;;;;;;3.53;1.20;;;12.10;99.90;;;;;;10452613;28;20222;-70
2023/01/06 11:44:39;;;;;;;4.33;0.93;;;12.20;99.90;;;;;;10468792;28;20274;-71
2023/01/06 11:49:47;;;;;;;2.33;1.30;;;12.30;99.90;;;;;;10472605;28;20362;-70
2023/01/06 11:55:04;;;;;;;2.50;1.43;;;12.30;99.90;;;;;;10479335;28;20272;-73
2023/01/06 12:00:20;;;;;;;3.40;1.23;;;12.50;99.90;;;;;;10463821;28;20252;-71
2023/01/06 12:05:41;;;;;;;1.87;1.00;;;12.60;99.90;;;;;;10456407;28;20243;-71
2023/01/06 12:10:46;;;;;;;5.60;1.00;;;12.50;99.90;;;;;;10475418;28;20349;-73
2023/01/06 12:15:57;;;;;;;2.57;1.10;;;12.40;99.90;;;;;;10452015;28;20225;-73
2023/01/06 12:20:59;;;;;;;2.90;1.00;;;12.20;99.90;;;;;;10470380;28;20232;-74
2023/01/06 12:26:07;;;;;;;4.53;1.10;;;12.10;99.90;;;;;;10482948;28;20238;-75
2023/01/06 12:31:17;;;;;;;1.60;0.90;;;11.90;99.90;;;;;;10469741;28;20253;-74
2023/01/06 12:36:47;;;;;;;1.27;1.10;;;11.80;99.90;;;;;;10484892;28;20278;-72
2023/01/06 12:42:48;;;;;;;3.37;0.90;;;11.70;99.90;;;;;;10473057;28;20271;-78
2023/01/06 12:47:54;;;;;;;5.97;1.30;;;11.70;99.90;;;;;;10310346;28;20226;-76
2023/01/06 12:53:21;;;;;;;1.63;1.00;;;11.70;99.90;;;;;;10438948;28;20236;-75
2023/01/06 12:58:41;;;;;;;1.20;1.07;;;11.70;99.90;;;;;;10473693;28;20246;-74
2023/01/06 13:04:12;;;;;;;3.03;0.90;;;11.80;99.90;;;;;;10478014;28;20238;-75
2023/01/06 13:09:25;;;;;;;3.73;1.00;;;11.80;99.90;;;;;;10479120;28;20705;-75
2023/01/06 13:14:31;;;;;;;2.00;1.17;;;11.80;99.90;;;;;;10476747;28;20222;-74
2023/01/06 13:19:47;;;;;;;1.00;0.90;;;11.90;99.90;;;;;;10471087;28;20219;-73
2023/01/06 13:24:56;;;;;;;0.90;0.70;;;11.90;99.90;;;;;;10474745;28;20225;-73
2023/01/06 13:30:03;;;;;;;2.80;1.00;;;11.90;99.90;;;;;;10480970;28;20700;-74
2023/01/06 13:35:10;;;;;;;1.17;0.70;;;11.90;99.90;;;;;;10470648;28;20215;-73
2023/01/06 13:40:25;;;;;;;1.23;0.97;;;12.00;99.90;;;;;;10468715;28;20232;-73
2023/01/06 13:45:31;;;;;;;2.10;1.13;;;12.00;99.90;;;;;;10471670;28;20279;-74
2023/01/06 13:50:32;;;;;;;1.33;0.80;;;12.00;99.90;;;;;;10479687;28;20257;-74
2023/01/06 13:55:35;;;;;;;1.40;0.70;;;11.90;99.90;;;;;;10465466;28;20225;-74
2023/01/06 14:00:41;;;;;;;1.73;0.73;;;11.90;99.90;;;;;;10468631;28;20229;-74
2023/01/06 14:05:42;;;;;;;0.90;0.67;;;11.90;99.90;;;;;;10436977;28;20317;-72
2023/01/06 14:10:45;;;;;;;2.57;0.80;;;11.80;99.90;;;;;;10468064;28;20761;-72
2023/01/06 14:16:05;;;;;;;1.00;0.63;;;11.80;99.90;;;;;;10473815;28;20222;-74
2023/01/06 14:21:11;;;;;;;1.43;0.70;;;11.80;99.90;;;;;;10453960;28;20226;-73
2023/01/06 14:26:12;;;;;;;4.23;0.90;;;11.70;99.90;;;;;;10452098;28;20952;-74
2023/01/06 14:31:37;;;;;;;1.30;0.90;;;11.70;99.90;;;;;;10457987;28;20226;-74
2023/01/06 14:36:39;;;;;;;1.73;0.70;;;11.60;99.90;;;;;;10463176;28;20230;-73
2023/01/06 14:41:51;;;;;;;3.47;0.90;;;11.60;99.90;;;;;;10470018;28;20288;-70
2023/01/06 14:46:57;;;;;;;0.70;0.70;;;11.60;99.90;;;;;;10474198;28;20242;-74
2023/01/06 14:51:59;;;;;;;0.93;0.80;;;11.70;99.90;;;;;;10479874;28;20227;-76
2023/01/06 14:57:02;;;;;;;1.73;0.90;;;11.80;99.90;;;;;;10465411;28;20235;-76
2023/01/06 15:02:13;;;;;;;2.23;0.80;;;11.80;99.90;;;;;;10478934;28;20699;-75
2023/01/06 15:07:15;;;;;;;1.93;1.00;;;11.70;99.90;;;;;;10468148;28;20231;-73
2023/01/06 15:12:30;;;;;;;0.60;0.53;;;11.70;99.90;;;;;;10475585;28;20219;-71
2023/01/06 15:17:31;;;;;;;1.67;0.57;;;11.70;99.90;;;;;;10476243;28;20699;-76
2023/01/06 15:22:32;;;;;;;1.87;0.70;;;11.70;99.90;;;;;;10464558;28;20364;-74
2023/01/06 15:27:33;;;;;;;1.13;0.70;;;11.60;99.90;;;;;;10488993;28;20708;-75
2023/01/06 15:32:33;;;;;;;1.83;0.50;;;11.50;99.90;;;;;;10468498;28;20320;-73
2023/01/06 15:37:35;;;;;;;3.83;0.90;;;11.50;99.90;;;;;;10485255;28;20206;-72
2023/01/06 15:42:38;;;;;;;1.40;1.10;;;11.30;99.90;;;;;;10489165;28;20218;-72
2023/01/06 15:47:45;;;;;;;1.53;1.00;;;11.40;99.90;;;;;;10474064;28;20230;-73
2023/01/06 15:52:51;;;;;;;2.67;0.93;;;11.30;99.90;;;;;;10460452;28;20298;-73
2023/01/06 15:58:06;;;;;;;1.37;0.90;;;11.30;99.90;;;;;;10478188;28;20239;-73
2023/01/06 16:03:26;;;;;;;1.07;0.70;;;11.20;99.90;;;;;;10480307;28;20222;-74
2023/01/06 16:08:28;;;;;;;2.07;0.97;;;11.20;99.90;;;;;;10468898;28;20204;-73
2023/01/06 16:13:29;;;;;;;0.80;0.70;;;11.20;99.90;;;;;;10468087;28;20226;-76
2023/01/06 16:18:35;;;;;;;1.07;0.80;;;11.20;99.90;;;;;;10478538;28;20301;-73
2023/01/06 16:23:38;;;;;;;1.63;0.90;;;11.10;99.90;;;;;;10466248;28;20873;-74
2023/01/06 16:28:48;;;;;;;1.27;0.90;;;11.10;99.90;;;;;;10490055;28;20268;-75
2023/01/06 16:33:49;;;;;;;1.60;1.00;;;11.10;99.90;;;;;;10460304;28;20219;-72
2023/01/06 16:38:49;;;;;;;0.93;0.83;;;11.10;99.90;;;;;;10478100;28;20218;-72
2023/01/06 16:43:50;;;;;;;0.90;0.70;;;11.10;99.90;;;;;;10480215;28;20329;-71
2023/01/06 16:48:52;;;;;;;2.40;1.00;;;11.10;99.90;;;;;;10468027;28;20277;-68
2023/01/06 16:53:53;;;;;;;1.10;1.00;;;11.10;99.90;;;;;;10457350;28;20565;-73
2023/01/06 16:58:55;;;;;;;1.10;1.00;;;11.10;99.90;;;;;;10493520;28;20226;-73
2023/01/06 17:03:57;;;;;;;0.93;0.73;;;11.10;99.90;;;;;;10478483;28;20225;-75
2023/01/06 17:09:02;;;;;;;1.63;0.90;;;11.10;99.90;;;;;;10484542;28;20222;-76
2023/01/06 17:14:13;;;;;;;1.57;1.00;;;11.10;99.90;;;;;;10458327;28;20217;-76
2023/01/06 17:19:21;;;;;;;1.83;1.13;;;11.10;99.90;;;;;;10479644;28;20234;-76
2023/01/06 17:24:25;;;;;;;7.70;1.33;;;11.10;99.90;;;;;;10488675;28;20223;-75
2023/01/06 17:29:29;;;;;;;1.33;0.80;;;11.00;99.90;;;;;;10494930;28;20238;-71
2023/01/06 17:34:35;;;;;;;1.17;0.60;;;11.10;99.90;;;;;;10482411;28;20216;-74
2023/01/06 17:39:45;;;;;;;1.77;0.97;;;11.10;99.90;;;;;;10474459;28;20364;-76
2023/01/06 17:44:59;;;;;;;3.03;1.50;;;11.00;99.90;;;;;;10475367;28;20273;-73
2023/01/06 17:50:09;;;;;;;2.63;1.10;;;11.00;99.90;;;;;;10489318;28;20720;-73
2023/01/06 17:55:43;;;;;;;2.07;1.07;;;11.00;99.90;;;;;;10491480;28;20693;-72
2023/01/06 18:00:45;;;;;;;2.53;1.70;;;11.00;99.90;;;;;;10490719;28;20382;-72
2023/01/06 18:05:53;;;;;;;2.30;1.43;;;11.00;99.90;;;;;;10472837;28;20782;-73
2023/01/06 18:11:10;;;;;;;3.80;1.40;;;11.00;99.90;;;;;;10488676;28;20222;-74
2023/01/06 18:16:20;;;;;;;1.47;1.37;;;11.00;99.90;;;;;;10473271;28;20273;-74
2023/01/06 18:21:35;;;;;;;1.90;1.10;;;11.00;99.90;;;;;;10462198;28;20214;-73
2023/01/06 18:26:37;;;;;;;2.30;1.30;;;11.00;99.90;;;;;;10477759;28;20310;-73
2023/01/06 18:31:39;;;;;;;3.77;1.30;;;11.00;99.90;;;;;;10482407;28;20214;-73
2023/01/06 18:36:43;;;;;;;3.30;1.57;;;11.00;99.90;;;;;;10478394;28;20226;-73
2023/01/06 18:41:44;;;;;;;1.87;1.40;;;11.00;99.90;;;;;;10465734;28;20319;-72
2023/01/06 18:46:44;;;;;;;1.73;1.10;;;11.00;99.90;;;;;;10481131;28;20315;-72
2023/01/06 18:51:45;;;;;;;1.20;1.10;;;11.00;99.90;;;;;;10472538;28;20218;-74
2023/01/06 18:56:46;;;;;;;1.67;1.37;;;11.00;99.90;;;;;;10474614;28;20225;-73
2023/01/06 19:01:49;;;;;;;1.10;1.00;;;11.00;99.90;;;;;;10496638;28;21660;-73
2023/01/06 19:07:11;;;;;;;1.77;1.20;;;11.00;99.90;;;;;;10496896;28;20223;-74
2023/01/06 19:12:42;;;;;;;1.40;1.10;;;11.00;99.90;;;;;;10488586;28;20241;-73
2023/01/06 19:17:46;;;;;;;1.17;1.10;;;11.00;99.90;;;;;;10491954;28;20231;-74
2023/01/06 19:22:48;;;;;;;1.43;1.20;;;11.00;99.90;;;;;;10503631;28;20316;-75
2023/01/06 19:27:51;;;;;;;1.20;1.10;;;11.00;99.90;;;;;;10472547;28;20222;-72
2023/01/06 19:32:51;;;;;;;1.37;1.27;;;11.00;99.90;;;;;;10443376;28;20223;-73
2023/01/06 19:38:08;;;;;;;3.93;1.50;;;11.00;99.90;;;;;;10494627;28;20622;-73
2023/01/06 19:43:15;;;;;;;3.00;1.27;;;11.00;99.90;;;;;;10475558;28;20324;-70
2023/01/06 19:48:23;;;;;;;3.33;1.33;;;11.00;99.90;;;;;;10479670;28;20215;-69
2023/01/06 19:53:36;;;;;;;4.17;1.90;;;11.00;99.90;;;;;;10463532;28;20779;-74
2023/01/06 19:58:36;;;;;;;2.57;1.70;;;11.00;99.90;;;;;;10477655;28;20277;-72
2023/01/06 20:03:42;;;;;;;1.90;1.50;;;11.00;99.90;;;;;;10468496;28;20223;-73
2023/01/06 20:08:43;;;;;;;1.37;1.20;;;11.00;99.90;;;;;;10461852;28;20225;-74
2023/01/06 20:13:43;;;;;;;3.30;1.43;;;11.00;99.90;;;;;;10470078;28;20694;-78
2023/01/06 20:18:44;;;;;;;1.40;1.30;;;10.90;99.90;;;;;;10456935;28;20235;-75
2023/01/06 20:23:45;;;;;;;2.70;1.40;;;10.90;99.90;;;;;;10475512;28;20230;-72
2023/01/06 20:28:45;;;;;;;3.80;1.77;;;10.90;99.90;;;;;;10469327;28;20232;-73
2023/01/06 20:33:46;;;;;;;1.50;1.40;;;10.90;99.90;;;;;;10479152;28;20233;-75
2023/01/06 20:38:50;;;;;;;2.80;1.30;;;10.90;99.90;;;;;;10464859;28;20321;-75
2023/01/06 20:43:57;;;;;;;3.30;1.23;;;10.70;99.90;;;;;;10469915;28;20598;-76
2023/01/06 20:48:58;;;;;;;2.83;1.97;;;10.50;99.90;;;;;;10478786;28;20261;-77
2023/01/06 20:53:59;;;;;;;1.70;1.60;;;10.20;99.90;;;;;;10455416;28;20255;-75
2023/01/06 20:58:59;;;;;;;2.47;1.90;;;10.20;99.90;;;;;;10479775;28;20684;-74
2023/01/06 21:04:00;;;;;;;2.10;1.87;;;10.20;99.90;;;;;;10466160;28;20223;-74
2023/01/06 21:09:00;;;;;;;3.80;2.00;;;10.30;99.90;;;;;;10460706;28;20272;-75
2023/01/06 21:14:01;;;;;;;2.10;1.80;;;10.30;99.90;;;;;;10486087;28;20284;-75
2023/01/06 21:19:05;;;;;;;1.90;1.70;;;10.30;99.90;;;;;;10458532;28;20313;-75
2023/01/06 21:24:05;;;;;;;2.67;1.43;;;10.30;99.90;;;;;;10456916;28;20231;-75
2023/01/06 21:29:06;;;;;;;2.50;1.90;;;10.40;99.90;;;;;;10472317;28;20861;-76
2023/01/06 21:34:07;;;;;;;3.83;1.57;;;10.50;99.90;;;;;;10457729;28;20217;-75
2023/01/06 21:39:11;;;;;;;1.73;1.50;;;10.50;99.90;;;;;;10464120;28;20246;-75
2023/01/06 21:44:11;;;;;;;1.90;1.40;;;10.40;99.90;;;;;;10472634;28;20264;-76
2023/01/06 21:49:16;;;;;;;1.73;1.40;;;10.50;99.90;;;;;;10460618;28;20218;-75
2023/01/06 21:54:17;;;;;;;1.57;1.47;;;10.50;99.90;;;;;;10448623;28;20229;-76
2023/01/06 21:59:18;;;;;;;1.47;1.30;;;10.50;99.90;;;;;;10444361;28;20214;-75
2023/01/06 22:04:19;;;;;;;1.40;1.30;;;10.60;99.90;;;;;;10452307;28;20234;-74
2023/01/06 22:09:20;;;;;;;1.70;1.50;;;10.60;99.90;;;;;;10451792;28;20218;-75
2023/01/06 22:14:23;;;;;;;2.90;1.63;;;10.60;99.90;;;;;;10444382;28;20226;-77
2023/01/06 22:19:24;;;;;;;1.93;1.63;;;10.50;99.90;;;;;;10460947;28;20321;-75
2023/01/06 22:24:26;;;;;;;2.00;1.20;;;10.50;99.90;;;;;;10451441;28;20222;-72
2023/01/06 22:29:27;;;;;;;1.33;1.23;;;10.50;99.90;;;;;;10480272;28;20233;-72
2023/01/06 22:34:27;;;;;;;2.83;1.40;;;10.40;99.90;;;;;;10467756;28;20231;-72
2023/01/06 22:39:28;;;;;;;2.13;1.00;;;10.40;99.90;;;;;;10477790;28;20466;-72
2023/01/06 22:44:29;;;;;;;1.73;1.40;;;10.40;99.90;;;;;;10452866;28;20662;-73
2023/01/06 22:49:29;;;;;;;1.37;1.17;;;10.40;99.90;;;;;;10475873;28;20207;-73
2023/01/06 22:54:30;;;;;;;1.90;1.40;;;10.40;99.90;;;;;;10477962;28;20762;-72
2023/01/06 22:59:33;;;;;;;1.40;1.30;;;10.50;99.90;;;;;;10478069;28;20210;-74
2023/01/06 23:04:33;;;;;;;1.30;1.20;;;10.50;99.90;;;;;;10487079;28;20215;-70
2023/01/06 23:09:35;;;;;;;2.03;1.40;;;10.50;99.90;;;;;;10513686;28;20206;-71
2023/01/06 23:14:35;;;;;;;1.50;1.27;;;10.50;99.90;;;;;;10464118;28;20229;-75
2023/01/06 23:19:36;;;;;;;2.00;1.37;;;10.50;99.90;;;;;;10485285;28;20273;-73
2023/01/06 23:24:36;;;;;;;1.40;1.30;;;10.50;99.90;;;;;;10454836;28;20211;-73
2023/01/06 23:29:37;;;;;;;1.70;1.60;;;10.50;99.90;;;;;;10467196;28;20207;-73
2023/01/06 23:34:37;;;;;;;1.63;1.47;;;10.50;99.90;;;;;;10460719;28;20872;-73
2023/01/06 23:39:38;;;;;;;3.00;1.83;;;10.50;99.90;;;;;;10471464;28;20218;-73
2023/01/06 23:44:39;;;;;;;1.70;1.60;;;10.40;99.90;;;;;;10479560;28;20318;-72
2023/01/06 23:49:39;;;;;;;4.23;1.30;;;10.40;99.90;;;;;;10473426;28;20216;-71
2023/01/06 23:54:42;;;;;;;3.47;1.40;;;10.50;99.90;;;;;;10476466;28;20235;-72
2023/01/06 23:59:43;;;;;;;1.53;1.40;;;10.50;99.90;;;;;;10472063;28;20219;-73
